Time;durP1;ratioP1;P1;durP2;ratioP2;P2;SDS_P1;SDS_P2;PMS_P1;PMS_P2;Temp;Humidity;BMP_temperature;BMP_pressure;BME280_temperature;BME280_humidity;BME280_pressure;Samples;Min_cycle;Max_cycle;Signal;HPM_P1;HPM_P2
2022/01/15 00:01:51;;;;;;;0.57;0.57;;;3.90;81.90;;;;;;5009383;28;20347;-79
2022/01/15 00:04:17;;;;;;;0.30;0.30;;;3.80;82.80;;;;;;5009423;28;20026;-79
2022/01/15 00:06:42;;;;;;;0.98;0.50;;;3.70;82.80;;;;;;4994111;28;20026;-78
2022/01/15 00:09:08;;;;;;;1.00;0.43;;;3.60;84.80;;;;;;4994348;28;20105;-77
2022/01/15 00:11:37;;;;;;;0.40;0.40;;;3.50;85.80;;;;;;5009398;28;20466;-80
2022/01/15 00:14:14;;;;;;;0.73;0.60;;;3.30;87.20;;;;;;5009348;28;20033;-80
2022/01/15 00:16:49;;;;;;;0.90;0.40;;;3.20;88.40;;;;;;5009311;28;20026;-79
2022/01/15 00:19:16;;;;;;;0.20;0.20;;;3.00;90.20;;;;;;5009481;28;20038;-79
2022/01/15 00:21:42;;;;;;;0.43;0.40;;;2.80;91.00;;;;;;5009546;28;20389;-79
2022/01/15 00:24:08;;;;;;;0.38;0.30;;;2.50;91.50;;;;;;5009087;28;20122;-79
2022/01/15 00:26:34;;;;;;;0.35;0.30;;;2.40;91.70;;;;;;5009441;28;20022;-81
2022/01/15 00:29:00;;;;;;;1.60;1.10;;;2.20;92.10;;;;;;5009193;28;20355;-79
2022/01/15 00:31:27;;;;;;;1.27;1.10;;;2.10;92.10;;;;;;5009356;28;20050;-79
2022/01/15 00:33:53;;;;;;;2.25;0.95;;;2.00;92.20;;;;;;5008868;28;20382;-79
2022/01/15 00:36:19;;;;;;;1.33;0.90;;;1.90;92.50;;;;;;4992520;28;20026;-78
2022/01/15 00:38:45;;;;;;;1.45;0.50;;;1.90;93.00;;;;;;5010573;28;20104;-79
2022/01/15 00:41:11;;;;;;;0.85;0.57;;;1.80;93.30;;;;;;5011998;28;20042;-79
2022/01/15 00:43:37;;;;;;;1.05;0.60;;;1.60;94.50;;;;;;4995667;28;20125;-79
2022/01/15 00:46:03;;;;;;;0.35;0.35;;;1.40;94.90;;;;;;5012028;28;20056;-79
2022/01/15 00:48:29;;;;;;;1.00;0.77;;;1.30;95.40;;;;;;5012041;28;20426;-79
2022/01/15 00:50:55;;;;;;;0.93;0.82;;;1.10;95.60;;;;;;5013435;28;20662;-78
2022/01/15 00:53:20;;;;;;;1.52;0.90;;;1.10;96.20;;;;;;5011891;28;20025;-79
2022/01/15 00:55:46;;;;;;;2.28;1.10;;;1.10;96.80;;;;;;5011930;28;20037;-79
2022/01/15 00:58:12;;;;;;;2.70;1.15;;;1.10;97.40;;;;;;5011791;28;20037;-79
2022/01/15 01:00:39;;;;;;;3.22;1.13;;;1.00;97.90;;;;;;5011811;28;20028;-79
2022/01/15 01:03:05;;;;;;;2.25;1.13;;;1.00;98.40;;;;;;5012089;28;20374;-79
2022/01/15 01:05:31;;;;;;;1.45;1.10;;;1.00;98.90;;;;;;5013227;28;20458;-79
2022/01/15 01:07:57;;;;;;;1.98;1.10;;;0.90;99.30;;;;;;5013196;28;20068;-78
2022/01/15 01:21:30;;;;;;;4.50;2.38;;;0.80;99.90;;;;;;5013209;28;20088;-78
2022/01/15 01:23:48;;;;;;;6.50;2.83;;;0.80;99.90;;;;;;5012741;28;20033;-78
2022/01/15 01:26:32;;;;;;;6.07;4.13;;;0.80;99.90;;;;;;5012791;28;20041;-79
2022/01/15 01:29:09;;;;;;;7.15;4.55;;;0.80;99.90;;;;;;5011188;28;20512;-79
2022/01/15 01:31:40;;;;;;;5.03;3.03;;;0.80;99.90;;;;;;5011763;28;20048;-79
2022/01/15 01:34:10;;;;;;;5.90;3.35;;;0.80;99.90;;;;;;5011545;28;20028;-79
2022/01/15 01:36:51;;;;;;;5.18;3.33;;;0.70;99.90;;;;;;5011429;28;20034;-79
2022/01/15 01:39:20;;;;;;;5.50;3.50;;;0.60;99.90;;;;;;5012601;28;20073;-79
2022/01/15 01:42:33;;;;;;;9.15;4.15;;;0.50;99.90;;;;;;5011302;28;20026;-78
2022/01/15 01:44:42;;;;;;;5.22;3.17;;;0.40;99.90;;;;;;5011613;28;20037;-81
2022/01/15 01:47:23;;;;;;;4.97;2.97;;;0.40;99.90;;;;;;5011550;28;20474;-77
2022/01/15 01:49:49;;;;;;;5.38;3.65;;;0.30;99.90;;;;;;5011706;28;20022;-80
2022/01/15 01:52:15;;;;;;;4.65;3.10;;;0.30;99.90;;;;;;5012599;28;20026;-77
2022/01/15 01:54:41;;;;;;;3.45;1.90;;;0.20;99.90;;;;;;5011391;28;20429;-79
2022/01/15 01:57:06;;;;;;;2.55;1.30;;;0.10;99.90;;;;;;5011756;28;20129;-82
2022/01/15 01:59:32;;;;;;;1.48;1.20;;;0.20;99.90;;;;;;5012549;28;20053;-79
2022/01/15 02:01:58;;;;;;;2.30;1.08;;;0.00;99.90;;;;;;5015365;28;20026;-79
2022/01/15 02:04:24;;;;;;;3.95;0.98;;;0.00;99.90;;;;;;5015389;28;20488;-78
2022/01/15 02:06:50;;;;;;;1.90;1.15;;;-0.10;99.90;;;;;;5014942;28;20026;-78
2022/01/15 02:09:17;;;;;;;1.92;1.45;;;-0.20;99.90;;;;;;4998968;28;20033;-78
2022/01/15 02:11:43;;;;;;;1.67;1.02;;;-0.30;99.90;;;;;;5015345;28;20037;-79
2022/01/15 02:14:09;;;;;;;1.58;1.20;;;-0.30;99.90;;;;;;5014892;28;20034;-79
2022/01/15 02:16:34;;;;;;;3.50;1.42;;;-0.40;99.90;;;;;;5016023;28;20053;-79
2022/01/15 02:19:00;;;;;;;2.05;1.05;;;-0.50;99.90;;;;;;5015012;28;20037;-79
2022/01/15 02:24:11;;;;;;;5.03;1.58;;;-0.50;99.90;;;;;;5016350;28;20674;-79
2022/01/15 02:26:38;;;;;;;2.13;1.50;;;-0.60;99.90;;;;;;5015088;28;20137;-79
2022/01/15 02:29:05;;;;;;;2.22;1.65;;;-0.60;99.90;;;;;;5014512;28;20095;-79
2022/01/15 02:31:32;;;;;;;3.05;1.42;;;-0.60;99.90;;;;;;5015981;28;20026;-79
2022/01/15 02:34:00;;;;;;;2.38;1.63;;;-0.60;99.90;;;;;;5014790;28;20049;-79
2022/01/15 02:36:31;;;;;;;4.75;3.72;;;-0.70;99.90;;;;;;5014179;28;20034;-79
2022/01/15 02:38:58;;;;;;;2.67;1.77;;;-0.60;99.90;;;;;;5015519;28;20046;-79
2022/01/15 02:41:32;;;;;;;2.75;1.83;;;-0.70;99.90;;;;;;5014366;28;20026;-79
2022/01/15 02:44:00;;;;;;;3.60;1.55;;;-0.70;99.90;;;;;;4998001;28;20034;-79
2022/01/15 02:48:55;;;;;;;2.40;1.50;;;-0.70;99.90;;;;;;5015717;28;20026;-79
2022/01/15 02:51:24;;;;;;;2.50;1.80;;;-0.80;99.90;;;;;;5013679;28;20026;-79
2022/01/15 02:53:55;;;;;;;3.35;1.70;;;-0.80;99.90;;;;;;5013839;28;20030;-79
2022/01/15 02:56:39;;;;;;;2.25;1.85;;;-0.90;99.90;;;;;;5014436;28;20083;-84
2022/01/15 02:59:09;;;;;;;2.53;1.52;;;-1.00;99.90;;;;;;5015740;28;20041;-80
2022/01/15 03:01:35;;;;;;;3.65;1.40;;;-1.00;99.90;;;;;;5015681;28;20018;-86
2022/01/15 03:04:02;;;;;;;2.72;1.83;;;-1.00;99.90;;;;;;5016536;28;20026;-83
2022/01/15 03:06:27;;;;;;;5.35;2.08;;;-1.00;99.90;;;;;;5015631;28;20030;-80
2022/01/15 03:08:54;;;;;;;2.38;2.08;;;-1.00;99.90;;;;;;5014519;28;20022;-80
2022/01/15 03:11:20;;;;;;;5.18;2.03;;;-1.00;99.90;;;;;;5014317;28;20105;-79
2022/01/15 03:13:47;;;;;;;5.38;2.15;;;-1.00;99.90;;;;;;5014169;28;20057;-79
2022/01/15 03:16:18;;;;;;;6.55;2.67;;;-1.00;99.90;;;;;;5013863;28;20382;-79
2022/01/15 03:18:44;;;;;;;6.32;2.90;;;-1.10;99.90;;;;;;5015247;28;20474;-79
2022/01/15 03:21:10;;;;;;;4.18;2.33;;;-1.10;99.90;;;;;;5013628;28;20022;-78
2022/01/15 03:23:36;;;;;;;7.18;2.85;;;-1.10;99.90;;;;;;5013884;28;20129;-79
2022/01/15 03:26:03;;;;;;;4.70;2.63;;;-1.00;99.90;;;;;;5013774;28;20136;-79
2022/01/15 03:28:29;;;;;;;3.53;1.92;;;-1.00;99.90;;;;;;5013627;28;20037;-79
2022/01/15 03:30:55;;;;;;;3.88;2.20;;;-1.10;99.90;;;;;;5013756;28;20378;-79
2022/01/15 03:33:20;;;;;;;4.15;2.33;;;-1.10;99.90;;;;;;5013681;28;20033;-78
2022/01/15 03:35:47;;;;;;;2.75;1.98;;;-1.20;99.90;;;;;;5014873;28;20380;-81
2022/01/15 03:38:13;;;;;;;2.78;1.92;;;-1.20;99.90;;;;;;5014599;28;20044;-84
2022/01/15 03:40:38;;;;;;;4.30;2.05;;;-1.20;99.90;;;;;;5015004;28;20046;-81
2022/01/15 03:43:05;;;;;;;3.63;2.55;;;-1.30;99.90;;;;;;5013762;28;20048;-79
2022/01/15 03:45:31;;;;;;;3.72;2.22;;;-1.30;99.90;;;;;;5013342;28;20034;-79
2022/01/15 03:47:57;;;;;;;6.32;2.17;;;-1.30;99.90;;;;;;5013126;28;20026;-79
2022/01/15 03:50:24;;;;;;;4.22;2.33;;;-1.30;99.90;;;;;;5013469;28;20026;-79
2022/01/15 03:52:50;;;;;;;5.45;4.72;;;-1.40;99.90;;;;;;5013076;28;20025;-79
2022/01/15 03:55:18;;;;;;;3.65;2.45;;;-1.40;99.90;;;;;;5013099;28;20040;-79
2022/01/15 03:57:43;;;;;;;5.05;3.60;;;-1.40;99.90;;;;;;5013247;28;20507;-80
2022/01/15 04:00:13;;;;;;;5.68;3.28;;;-1.40;99.90;;;;;;5012971;28;20108;-79
2022/01/15 04:02:39;;;;;;;11.20;4.85;;;-1.50;99.90;;;;;;5013081;28;20478;-79
2022/01/15 04:05:05;;;;;;;7.57;4.38;;;-1.50;99.90;;;;;;5013305;28;20077;-79
2022/01/15 04:07:31;;;;;;;9.85;4.55;;;-1.50;99.90;;;;;;5012986;28;20034;-78
2022/01/15 04:09:56;;;;;;;7.68;3.88;;;-1.40;99.90;;;;;;5013055;28;20041;-80
2022/01/15 04:12:22;;;;;;;5.80;3.45;;;-1.50;99.90;;;;;;5013705;28;20053;-79
2022/01/15 04:14:48;;;;;;;3.90;2.72;;;-1.50;99.90;;;;;;5012701;28;20018;-79
2022/01/15 04:17:13;;;;;;;3.85;2.53;;;-1.60;99.90;;;;;;5012857;28;20060;-79
2022/01/15 04:19:40;;;;;;;4.07;2.72;;;-1.60;99.90;;;;;;5012858;28;20030;-79
2022/01/15 04:22:06;;;;;;;4.18;2.33;;;-1.70;99.90;;;;;;5012696;28;20026;-78
2022/01/15 04:24:32;;;;;;;4.60;2.70;;;-1.60;99.90;;;;;;5013628;28;20048;-79
2022/01/15 04:26:58;;;;;;;5.05;3.42;;;-1.70;99.90;;;;;;5012729;28;20462;-78
2022/01/15 04:29:23;;;;;;;6.47;2.72;;;-1.80;99.90;;;;;;4996032;28;20414;-79
2022/01/15 04:31:51;;;;;;;4.82;3.30;;;-1.80;99.90;;;;;;5012571;28;20033;-78
2022/01/15 04:34:26;;;;;;;4.85;2.97;;;-1.80;99.90;;;;;;5012491;28;20428;-78
2022/01/15 04:36:56;;;;;;;6.38;3.00;;;-1.80;99.90;;;;;;5012541;28;20048;-79
2022/01/15 04:39:22;;;;;;;8.05;3.38;;;-1.80;99.90;;;;;;5012320;28;20478;-78
2022/01/15 04:41:48;;;;;;;4.72;2.67;;;-1.90;99.90;;;;;;5013609;28;20052;-79
2022/01/15 04:44:14;;;;;;;4.63;3.47;;;-1.80;99.90;;;;;;5012187;28;20554;-79
2022/01/15 04:46:40;;;;;;;5.45;3.70;;;-1.90;99.90;;;;;;5012179;28;20030;-78
2022/01/15 04:49:06;;;;;;;5.65;4.07;;;-1.90;99.90;;;;;;5012070;28;20372;-79
2022/01/15 04:51:33;;;;;;;5.05;3.65;;;-1.90;99.90;;;;;;4995853;28;20532;-78
2022/01/15 04:53:58;;;;;;;6.25;2.85;;;-1.90;99.90;;;;;;5011949;28;20033;-79
2022/01/15 04:56:24;;;;;;;9.18;3.78;;;-2.00;99.90;;;;;;5012020;28;20022;-79
2022/01/15 04:58:50;;;;;;;4.18;2.88;;;-2.00;99.90;;;;;;4995742;28;20513;-79
2022/01/15 05:01:16;;;;;;;5.63;2.92;;;-2.00;99.90;;;;;;4995750;28;20026;-80
2022/01/15 05:03:41;;;;;;;5.28;3.00;;;-2.00;99.90;;;;;;5011443;28;20112;-79
2022/01/15 05:06:07;;;;;;;5.95;2.60;;;-2.10;99.90;;;;;;5011969;28;20021;-80
2022/01/15 05:08:33;;;;;;;4.53;2.67;;;-2.10;99.90;;;;;;5011809;28;20026;-80
2022/01/15 05:11:09;;;;;;;5.53;3.05;;;-2.00;99.90;;;;;;5011925;28;20373;-79
2022/01/15 05:13:36;;;;;;;7.68;4.47;;;-2.20;99.90;;;;;;5012023;28;20555;-80
2022/01/15 05:16:02;;;;;;;11.60;4.28;;;-2.30;99.90;;;;;;5012537;28;20030;-81
2022/01/15 05:18:28;;;;;;;6.70;4.07;;;-2.30;99.90;;;;;;5012009;28;20045;-79
2022/01/15 05:20:54;;;;;;;6.93;4.53;;;-2.30;99.90;;;;;;4995500;28;20026;-79
2022/01/15 05:23:19;;;;;;;14.10;7.57;;;-2.30;99.90;;;;;;4995653;28;20477;-79
2022/01/15 05:25:45;;;;;;;9.52;5.43;;;-2.30;99.90;;;;;;5011777;28;20021;-80
2022/01/15 05:28:11;;;;;;;7.03;3.67;;;-2.30;99.90;;;;;;5011852;28;20030;-78
2022/01/15 05:30:36;;;;;;;7.88;5.38;;;-2.20;99.90;;;;;;5011618;28;20113;-79
2022/01/15 05:33:02;;;;;;;6.55;3.92;;;-2.20;99.90;;;;;;5011559;28;20061;-79
2022/01/15 05:35:28;;;;;;;4.97;3.13;;;-2.20;99.90;;;;;;5013733;28;20032;-79
2022/01/15 05:37:57;;;;;;;7.07;3.65;;;-2.20;99.90;;;;;;5015622;28;20485;-79
2022/01/15 05:40:24;;;;;;;5.70;3.20;;;-2.30;99.90;;;;;;5015690;28;20045;-78
2022/01/15 05:42:51;;;;;;;6.05;3.28;;;-2.30;99.90;;;;;;5014461;28;20060;-79
2022/01/15 05:45:17;;;;;;;5.25;2.65;;;-2.30;99.90;;;;;;5014375;28;20022;-79
2022/01/15 05:47:43;;;;;;;6.30;3.30;;;-2.40;99.90;;;;;;5014307;28;20144;-79
2022/01/15 05:50:09;;;;;;;5.68;3.10;;;-2.40;99.90;;;;;;5015684;28;20033;-78
2022/01/15 05:52:35;;;;;;;7.60;3.67;;;-2.40;99.90;;;;;;5014356;28;20365;-79
2022/01/15 05:55:00;;;;;;;6.70;4.38;;;-2.40;99.90;;;;;;5013356;28;20034;-79
2022/01/15 05:57:26;;;;;;;6.47;3.60;;;-2.40;99.90;;;;;;5013889;28;20433;-77
2022/01/15 05:59:52;;;;;;;7.35;4.25;;;-2.50;99.90;;;;;;5014103;28;20026;-79
2022/01/15 06:02:21;;;;;;;7.65;3.83;;;-2.50;99.90;;;;;;5014304;28;20469;-79
2022/01/15 06:04:47;;;;;;;5.85;3.70;;;-2.50;99.90;;;;;;5015084;28;20105;-78
2022/01/15 06:07:13;;;;;;;6.63;3.58;;;-2.50;99.90;;;;;;5013786;28;20179;-79
2022/01/15 06:09:39;;;;;;;4.95;2.90;;;-2.50;99.90;;;;;;5013933;28;20470;-79
2022/01/15 06:12:05;;;;;;;8.13;4.93;;;-2.50;99.90;;;;;;5013749;28;20121;-78
2022/01/15 06:14:31;;;;;;;6.80;3.90;;;-2.50;99.90;;;;;;5014086;28;20022;-79
2022/01/15 06:16:58;;;;;;;18.73;5.82;;;-2.50;99.90;;;;;;5013648;28;20026;-78
2022/01/15 06:19:25;;;;;;;19.75;7.65;;;-2.50;99.90;;;;;;5013565;28;20120;-78
2022/01/15 06:21:51;;;;;;;17.15;7.55;;;-2.60;99.90;;;;;;5013967;28;20101;-80
2022/01/15 06:24:17;;;;;;;9.52;5.30;;;-2.60;99.90;;;;;;5013826;28;20080;-79
2022/01/15 06:26:42;;;;;;;12.25;4.38;;;-2.60;99.90;;;;;;5013607;28;20465;-79
2022/01/15 06:29:08;;;;;;;6.80;4.05;;;-2.60;99.90;;;;;;5015236;28;20034;-79
2022/01/15 06:31:34;;;;;;;8.35;4.00;;;-2.10;99.90;;;;;;5013021;28;20025;-80
2022/01/15 06:34:00;;;;;;;8.05;5.10;;;-2.00;99.90;;;;;;5017669;28;20026;-78
2022/01/15 06:36:26;;;;;;;9.38;5.43;;;-2.10;99.90;;;;;;5013378;28;20370;-80
2022/01/15 06:38:51;;;;;;;21.30;9.43;;;-2.10;99.90;;;;;;4973283;28;1176666;-79
2022/01/15 06:41:17;;;;;;;19.02;8.52;;;-2.20;99.90;;;;;;4998438;28;20091;-79
2022/01/15 06:43:43;;;;;;;14.70;8.27;;;-2.30;99.90;;;;;;5014951;28;20121;-79
2022/01/15 06:46:09;;;;;;;15.88;7.35;;;-2.40;99.90;;;;;;5014962;28;20021;-77
2022/01/15 06:48:35;;;;;;;14.95;9.63;;;-2.40;99.90;;;;;;5014863;28;20030;-77
2022/01/15 06:51:01;;;;;;;18.48;9.73;;;-2.50;99.90;;;;;;5014859;28;20028;-80
2022/01/15 06:53:26;;;;;;;24.75;12.32;;;-2.50;99.90;;;;;;5014580;28;20030;-79
2022/01/15 06:55:53;;;;;;;19.30;10.75;;;-2.50;99.90;;;;;;4998708;28;20033;-78
2022/01/15 06:58:19;;;;;;;16.95;8.23;;;-2.50;99.90;;;;;;5015579;28;20477;-79
2022/01/15 07:00:45;;;;;;;17.75;7.95;;;-2.60;99.90;;;;;;5014489;28;20029;-79
2022/01/15 07:03:11;;;;;;;13.80;7.28;;;-2.60;99.90;;;;;;5014502;28;20034;-79
2022/01/15 07:05:37;;;;;;;21.15;11.35;;;-2.60;99.90;;;;;;5014099;28;20382;-79
2022/01/15 07:08:03;;;;;;;21.25;9.70;;;-2.60;99.90;;;;;;5015445;28;20025;-79
2022/01/15 07:10:28;;;;;;;16.15;8.38;;;-2.60;99.90;;;;;;5014128;28;20041;-79
2022/01/15 07:12:54;;;;;;;19.02;10.18;;;-2.60;99.90;;;;;;5014503;28;20851;-79
2022/01/15 07:15:21;;;;;;;19.55;9.90;;;-2.60;99.90;;;;;;5013930;28;20025;-78
2022/01/15 07:17:48;;;;;;;11.13;7.10;;;-2.60;99.90;;;;;;5014296;28;20355;-79
2022/01/15 07:20:16;;;;;;;15.68;7.93;;;-2.50;99.90;;;;;;5014254;28;20544;-79
2022/01/15 07:22:42;;;;;;;14.38;7.63;;;-2.50;99.90;;;;;;5014378;28;20034;-79
2022/01/15 07:25:09;;;;;;;15.52;8.18;;;-2.50;99.90;;;;;;5014334;28;20021;-79
2022/01/15 07:27:35;;;;;;;13.95;7.05;;;-2.40;99.90;;;;;;5013923;28;20478;-79
2022/01/15 07:30:02;;;;;;;13.05;6.63;;;-2.40;99.90;;;;;;5014060;28;20022;-79
2022/01/15 07:32:28;;;;;;;15.38;7.38;;;-2.30;99.90;;;;;;5013823;28;20022;-78
2022/01/15 07:34:53;;;;;;;13.82;6.60;;;-2.20;99.90;;;;;;5014059;28;20033;-79
2022/01/15 07:37:19;;;;;;;14.93;7.18;;;-2.10;99.90;;;;;;5015217;28;20033;-79
2022/01/15 07:39:45;;;;;;;13.88;6.95;;;-2.10;99.90;;;;;;5013924;28;20046;-79
2022/01/15 07:42:11;;;;;;;14.15;7.53;;;-2.10;99.90;;;;;;5014184;28;20029;-79
2022/01/15 07:44:37;;;;;;;14.73;7.75;;;-2.00;99.90;;;;;;5014336;28;20026;-80
2022/01/15 07:47:03;;;;;;;14.27;7.68;;;-1.90;99.90;;;;;;5015265;28;20033;-79
2022/01/15 07:49:29;;;;;;;13.13;7.28;;;-1.80;99.90;;;;;;5014975;28;20104;-79
2022/01/15 07:51:54;;;;;;;14.80;7.30;;;-1.80;99.90;;;;;;5013758;28;20168;-78
2022/01/15 07:54:20;;;;;;;13.45;7.88;;;-1.70;99.90;;;;;;5014603;28;20022;-80
2022/01/15 07:56:46;;;;;;;18.30;7.93;;;-1.70;99.90;;;;;;5012886;28;20026;-78
2022/01/15 07:59:11;;;;;;;13.50;7.57;;;-1.60;99.90;;;;;;5013004;28;20030;-78
2022/01/15 08:01:37;;;;;;;14.40;7.43;;;-1.50;99.90;;;;;;5014466;28;20033;-79
2022/01/15 08:04:03;;;;;;;12.82;7.07;;;-1.50;99.90;;;;;;5013479;28;20347;-79
2022/01/15 08:06:29;;;;;;;14.95;7.70;;;-1.40;99.90;;;;;;5014305;28;20022;-78
2022/01/15 08:08:55;;;;;;;33.80;11.00;;;-1.30;99.90;;;;;;5013156;28;20041;-79
2022/01/15 08:11:21;;;;;;;25.05;14.43;;;-1.30;99.90;;;;;;5012914;28;20022;-79
2022/01/15 08:13:46;;;;;;;22.90;13.18;;;-1.20;99.90;;;;;;5013133;28;20030;-78
2022/01/15 08:16:12;;;;;;;18.38;9.38;;;-1.10;99.90;;;;;;5013480;28;20105;-78
2022/01/15 08:18:38;;;;;;;23.23;9.45;;;-1.00;99.90;;;;;;5012323;28;20096;-79
2022/01/15 08:21:05;;;;;;;21.55;9.75;;;-1.00;99.90;;;;;;5012100;28;20484;-78
2022/01/15 08:23:32;;;;;;;19.38;11.00;;;-0.90;99.90;;;;;;5014660;28;20029;-83
2022/01/15 08:25:58;;;;;;;24.63;12.65;;;-0.90;99.90;;;;;;5015303;28;20045;-81
2022/01/15 08:28:25;;;;;;;17.45;10.20;;;-0.80;99.90;;;;;;4998096;28;20034;-79
2022/01/15 08:30:51;;;;;;;16.83;10.15;;;-0.80;99.90;;;;;;5013504;28;20465;-83
2022/01/15 08:33:17;;;;;;;21.75;10.18;;;-0.70;99.90;;;;;;5012618;28;20056;-79
2022/01/15 08:35:42;;;;;;;16.13;8.95;;;-0.70;99.90;;;;;;5012469;28;20496;-80
2022/01/15 08:38:08;;;;;;;18.30;10.27;;;-0.70;99.90;;;;;;5011986;28;20029;-80
2022/01/15 08:40:34;;;;;;;21.95;12.55;;;-0.50;99.90;;;;;;5012178;28;20164;-80
2022/01/15 08:43:00;;;;;;;21.90;12.82;;;-0.50;99.90;;;;;;5012235;28;20119;-80
2022/01/15 08:45:27;;;;;;;42.05;22.40;;;-0.30;99.90;;;;;;5013337;28;20041;-80
2022/01/15 08:47:54;;;;;;;30.15;16.63;;;-0.10;99.90;;;;;;5012950;28;20026;-80
2022/01/15 08:50:21;;;;;;;23.73;13.65;;;0.00;99.90;;;;;;5011915;28;20022;-75
2022/01/15 08:52:47;;;;;;;24.35;14.27;;;0.20;99.90;;;;;;5011892;28;20057;-78
2022/01/15 08:55:14;;;;;;;28.77;18.10;;;0.30;99.90;;;;;;5012172;28;20493;-79
2022/01/15 08:57:40;;;;;;;28.35;19.67;;;0.50;99.90;;;;;;5011922;28;20061;-81
2022/01/15 09:00:10;;;;;;;29.05;17.58;;;1.70;99.90;;;;;;5012704;28;20073;-79
2022/01/15 09:02:37;;;;;;;28.33;17.27;;;2.40;99.90;;;;;;5011625;28;20026;-78
2022/01/15 09:05:04;;;;;;;28.80;17.13;;;2.60;99.90;;;;;;5013154;28;20105;-79
2022/01/15 09:07:30;;;;;;;31.08;19.77;;;2.50;99.90;;;;;;5011394;28;20022;-79
2022/01/15 09:09:55;;;;;;;30.20;19.10;;;2.40;99.90;;;;;;5011999;28;20072;-79
2022/01/15 09:12:22;;;;;;;31.45;18.73;;;2.40;99.90;;;;;;5011788;28;20030;-81
2022/01/15 09:14:52;;;;;;;24.50;14.65;;;2.30;99.90;;;;;;5011725;28;20018;-80
2022/01/15 09:17:18;;;;;;;23.25;11.70;;;2.30;99.90;;;;;;5011932;28;20034;-76
2022/01/15 09:19:44;;;;;;;20.40;12.82;;;2.30;99.90;;;;;;5012322;28;20080;-79
2022/01/15 09:22:11;;;;;;;21.08;12.02;;;2.80;99.90;;;;;;5012072;28;20026;-80
2022/01/15 09:24:37;;;;;;;23.23;13.75;;;3.40;99.90;;;;;;5011608;28;20432;-79
2022/01/15 09:30:12;;;;;;;18.38;12.57;;;4.00;99.90;;;;;;5011759;28;20109;-81
2022/01/15 09:32:33;;;;;;;15.90;10.48;;;4.30;99.90;;;;;;5014114;28;20129;-82
2022/01/15 09:34:58;;;;;;;19.25;10.43;;;4.10;99.90;;;;;;5012642;28;20057;-81
2022/01/15 09:37:24;;;;;;;22.10;11.20;;;4.00;99.90;;;;;;5012788;28;20378;-81
2022/01/15 09:39:50;;;;;;;16.48;9.55;;;3.90;99.90;;;;;;5012433;28;20054;-81
2022/01/15 09:42:16;;;;;;;19.67;11.38;;;3.90;99.90;;;;;;5012711;28;20124;-84
2022/01/15 09:44:44;;;;;;;20.70;12.13;;;3.90;99.90;;;;;;5012821;28;20108;-81
2022/01/15 09:47:12;;;;;;;21.77;11.68;;;4.00;99.90;;;;;;5012989;28;20014;-79
2022/01/15 09:49:41;;;;;;;21.98;12.13;;;4.00;99.90;;;;;;5011571;28;20030;-79
2022/01/15 09:52:07;;;;;;;21.85;13.38;;;3.90;99.90;;;;;;5011514;28;20454;-78
2022/01/15 09:54:33;;;;;;;23.83;12.70;;;3.90;99.90;;;;;;5011381;28;20096;-78
2022/01/15 09:56:59;;;;;;;22.77;13.30;;;3.80;99.90;;;;;;5011344;28;20076;-78
2022/01/15 09:59:25;;;;;;;18.65;11.23;;;3.80;99.90;;;;;;5011565;28;20109;-78
2022/01/15 10:01:51;;;;;;;19.20;11.13;;;3.80;99.90;;;;;;5011389;28;20041;-79
2022/01/15 10:04:17;;;;;;;22.48;12.48;;;3.80;99.90;;;;;;5011219;28;20022;-79
2022/01/15 10:07:09;;;;;;;21.15;14.35;;;3.80;99.90;;;;;;5011406;28;20040;-80
2022/01/15 10:09:36;;;;;;;17.23;10.75;;;3.70;99.90;;;;;;5011960;28;20036;-84
2022/01/15 10:12:02;;;;;;;17.33;11.43;;;3.70;99.90;;;;;;5012938;28;20022;-78
2022/01/15 10:14:33;;;;;;;13.25;9.07;;;3.70;99.90;;;;;;5011383;28;20032;-80
2022/01/15 10:17:02;;;;;;;14.07;9.93;;;4.00;99.90;;;;;;5010835;28;20034;-81
2022/01/15 10:19:33;;;;;;;16.75;10.77;;;4.30;99.90;;;;;;5012246;28;20069;-80
2022/01/15 10:22:17;;;;;;;15.63;10.13;;;4.40;99.90;;;;;;5013747;28;20057;-80
2022/01/15 10:24:57;;;;;;;17.30;9.95;;;4.40;99.90;;;;;;5015323;28;20030;-79
2022/01/15 10:27:35;;;;;;;19.17;11.43;;;4.30;99.90;;;;;;5015373;28;20076;-83
2022/01/15 10:30:08;;;;;;;17.02;10.68;;;4.20;99.90;;;;;;5015433;28;20040;-79
2022/01/15 10:33:02;;;;;;;19.50;10.77;;;4.10;99.90;;;;;;4998494;28;20026;-79
2022/01/15 10:35:39;;;;;;;14.82;9.48;;;4.00;99.90;;;;;;5008356;28;20037;-79
2022/01/15 10:38:12;;;;;;;18.58;9.88;;;4.00;99.90;;;;;;5020869;28;20045;-81
2022/01/15 10:40:55;;;;;;;16.35;9.98;;;3.90;99.90;;;;;;5015275;28;20129;-80
2022/01/15 10:43:30;;;;;;;16.35;9.73;;;3.90;99.90;;;;;;5014080;28;20394;-79
2022/01/15 10:45:58;;;;;;;31.02;15.80;;;3.90;99.90;;;;;;5014392;28;20026;-80
2022/01/15 10:48:31;;;;;;;29.63;14.80;;;3.90;99.90;;;;;;5014350;28;20026;-81
2022/01/15 10:51:03;;;;;;;46.47;22.80;;;4.00;99.90;;;;;;5014378;28;20113;-79
2022/01/15 10:53:40;;;;;;;21.65;13.57;;;4.00;99.90;;;;;;5014974;28;20037;-79
2022/01/15 10:56:08;;;;;;;24.70;15.18;;;4.00;99.90;;;;;;5014019;28;20029;-79
2022/01/15 10:58:34;;;;;;;23.75;12.77;;;3.90;99.90;;;;;;5013775;28;20367;-79
2022/01/15 11:01:00;;;;;;;19.30;11.95;;;3.90;99.90;;;;;;5014036;28;20033;-80
2022/01/15 11:03:38;;;;;;;20.85;11.00;;;3.90;99.90;;;;;;5013807;28;20026;-79
2022/01/15 11:06:05;;;;;;;20.00;10.40;;;3.90;99.90;;;;;;5013536;28;20420;-79
2022/01/15 11:08:34;;;;;;;15.70;10.45;;;4.00;99.90;;;;;;5014151;28;20057;-80
2022/01/15 11:11:04;;;;;;;16.88;10.20;;;4.20;99.90;;;;;;5014268;28;20029;-80
2022/01/15 11:13:42;;;;;;;17.83;10.88;;;4.40;99.90;;;;;;5014451;28;20084;-78
2022/01/15 11:16:26;;;;;;;14.73;9.32;;;4.40;99.90;;;;;;5014018;28;20026;-80
2022/01/15 11:18:56;;;;;;;16.33;8.57;;;4.60;99.90;;;;;;5014880;28;20038;-78
2022/01/15 11:21:24;;;;;;;23.42;16.65;;;4.70;99.90;;;;;;5013198;28;20033;-78
2022/01/15 11:23:50;;;;;;;13.65;9.27;;;4.80;99.90;;;;;;5013441;28;20382;-78
2022/01/15 11:26:24;;;;;;;14.48;9.13;;;5.00;99.90;;;;;;5012694;28;20048;-79
2022/01/15 11:28:51;;;;;;;14.10;9.18;;;5.10;99.90;;;;;;5013308;28;20032;-78
2022/01/15 11:31:23;;;;;;;13.45;8.30;;;5.10;99.90;;;;;;5013181;28;20057;-80
2022/01/15 11:33:55;;;;;;;14.50;7.65;;;5.20;99.90;;;;;;5012050;28;21051;-78
2022/01/15 11:36:43;;;;;;;14.25;7.70;;;5.20;99.90;;;;;;5013227;28;20022;-78
2022/01/15 11:39:11;;;;;;;10.15;6.88;;;5.30;99.90;;;;;;5013108;28;20057;-78
2022/01/15 11:41:52;;;;;;;11.15;7.47;;;5.40;99.50;;;;;;5012866;28;20033;-78
2022/01/15 11:44:37;;;;;;;14.60;8.70;;;5.40;99.10;;;;;;5013151;28;20083;-79
2022/01/15 11:47:25;;;;;;;15.63;7.80;;;5.40;99.00;;;;;;5012970;28;20470;-78
2022/01/15 11:49:53;;;;;;;14.95;8.70;;;5.40;98.50;;;;;;5012964;28;20018;-79
2022/01/15 11:52:21;;;;;;;14.68;8.52;;;5.30;98.80;;;;;;5012742;28;20088;-78
2022/01/15 11:54:53;;;;;;;12.25;7.90;;;5.20;99.10;;;;;;4996798;28;20516;-78
2022/01/15 11:57:26;;;;;;;13.48;8.45;;;5.10;99.30;;;;;;4996220;28;20036;-78
2022/01/15 11:59:53;;;;;;;11.25;7.63;;;5.00;99.50;;;;;;4996125;28;20026;-79
2022/01/15 12:02:40;;;;;;;13.23;8.13;;;5.00;99.40;;;;;;4996312;28;20021;-79
2022/01/15 12:05:18;;;;;;;12.95;7.40;;;5.00;99.60;;;;;;5012800;28;20026;-78
2022/01/15 12:08:00;;;;;;;13.85;8.23;;;4.90;99.90;;;;;;4996056;28;20006;-81
2022/01/15 12:10:38;;;;;;;14.60;8.68;;;4.80;99.90;;;;;;4996706;28;20120;-82
2022/01/15 12:13:11;;;;;;;18.17;8.35;;;4.70;99.90;;;;;;4996779;28;20390;-81
2022/01/15 12:15:37;;;;;;;12.27;8.05;;;4.60;99.90;;;;;;5012210;28;20032;-80
2022/01/15 12:18:14;;;;;;;11.43;8.18;;;4.60;99.90;;;;;;5013136;28;20030;-80
2022/01/15 12:20:41;;;;;;;12.30;8.10;;;4.60;99.90;;;;;;5012405;28;20032;-78
2022/01/15 12:23:19;;;;;;;12.43;8.02;;;4.60;99.90;;;;;;5012131;28;20121;-79
2022/01/15 12:25:45;;;;;;;16.80;8.80;;;4.60;99.90;;;;;;4995885;28;20022;-79
2022/01/15 12:28:14;;;;;;;18.42;9.93;;;4.60;99.90;;;;;;5011853;28;20113;-79
2022/01/15 12:30:44;;;;;;;17.30;8.77;;;4.60;99.90;;;;;;5012055;28;20033;-79
2022/01/15 12:33:13;;;;;;;17.67;10.05;;;4.70;99.90;;;;;;5011780;28;20036;-79
2022/01/15 12:35:40;;;;;;;15.57;9.25;;;4.90;99.90;;;;;;5012290;28;20026;-80
2022/01/15 12:38:15;;;;;;;14.00;8.48;;;5.00;99.90;;;;;;5013270;28;20060;-79
2022/01/15 12:40:46;;;;;;;13.57;8.02;;;5.10;99.90;;;;;;5012141;28;20045;-78
2022/01/15 12:43:25;;;;;;;16.00;8.35;;;5.30;99.40;;;;;;5011711;28;20029;-78
2022/01/15 12:45:53;;;;;;;13.88;8.60;;;5.40;99.00;;;;;;5013241;28;20054;-78
2022/01/15 12:48:27;;;;;;;17.67;9.07;;;5.50;98.60;;;;;;5013332;28;20018;-81
2022/01/15 12:50:58;;;;;;;11.60;8.00;;;5.50;98.80;;;;;;5012161;28;20371;-79
2022/01/15 12:53:34;;;;;;;13.95;8.60;;;5.60;98.80;;;;;;5012150;28;20018;-78
2022/01/15 12:55:59;;;;;;;15.25;9.05;;;5.80;99.90;;;;;;5011914;28;20026;-79
2022/01/15 12:58:28;;;;;;;14.27;8.98;;;5.90;98.70;;;;;;5011507;28;20441;-78
2022/01/15 13:00:54;;;;;;;14.00;8.45;;;5.90;98.00;;;;;;5011718;28;20033;-79
2022/01/15 13:03:24;;;;;;;13.82;9.15;;;5.90;97.40;;;;;;5012078;28;20084;-78
2022/01/15 13:05:52;;;;;;;11.15;7.85;;;5.90;97.20;;;;;;5011666;28;20029;-78
2022/01/15 13:08:24;;;;;;;18.73;8.90;;;5.90;97.00;;;;;;5013040;28;20040;-78